sensor_id;sensor_type;location;lat;lon;timestamp;pressure;altitude;pressure_sealevel;temperature;humidity
56420;BME280;42323;52.170;7.538;2022-10-30T00:00:42;101247.03;;;16.36;100.00
56420;BME280;42323;52.170;7.538;2022-10-30T00:03:10;101248.03;;;16.35;100.00
56420;BME280;42323;52.170;7.538;2022-10-30T00:05:38;101242.84;;;16.34;100.00
56420;BME280;42323;52.170;7.538;2022-10-30T00:08:05;101245.91;;;16.31;100.00
56420;BME280;42323;52.170;7.538;2022-10-30T00:10:32;101243.38;;;16.29;100.00
56420;BME280;42323;52.170;7.538;2022-10-30T00:12:59;101242.72;;;16.27;100.00
56420;BME280;42323;52.170;7.538;2022-10-30T00:15:26;101242.72;;;16.27;100.00
56420;BME280;42323;52.170;7.538;2022-10-30T00:17:52;101249.28;;;16.24;100.00
56420;BME280;42323;52.170;7.538;2022-10-30T00:20:19;101255.84;;;16.22;100.00
56420;BME280;42323;52.170;7.538;2022-10-30T00:22:45;101248.50;;;16.16;100.00
56420;BME280;42323;52.170;7.538;2022-10-30T00:25:12;101250.22;;;16.09;100.00
56420;BME280;42323;52.170;7.538;2022-10-30T00:27:39;101251.75;;;16.03;100.00
56420;BME280;42323;52.170;7.538;2022-10-30T00:30:05;101257.16;;;15.95;100.00
56420;BME280;42323;52.170;7.538;2022-10-30T00:32:32;101256.19;;;15.88;100.00
56420;BME280;42323;52.170;7.538;2022-10-30T00:34:58;101261.22;;;15.83;100.00
56420;BME280;42323;52.170;7.538;2022-10-30T00:37:25;101259.91;;;15.79;100.00
56420;BME280;42323;52.170;7.538;2022-10-30T00:39:52;101256.09;;;15.73;100.00
56420;BME280;42323;52.170;7.538;2022-10-30T00:42:18;101263.28;;;15.73;100.00
56420;BME280;42323;52.170;7.538;2022-10-30T00:44:48;101271.69;;;15.70;100.00
56420;BME280;42323;52.170;7.538;2022-10-30T00:52:46;101276.22;;;15.61;100.00
56420;BME280;42323;52.170;7.538;2022-10-30T00:55:29;101264.00;;;15.58;100.00
56420;BME280;42323;52.170;7.538;2022-10-30T00:57:57;101265.34;;;15.54;100.00
56420;BME280;42323;52.170;7.538;2022-10-30T01:00:25;101273.06;;;15.49;100.00
56420;BME280;42323;52.170;7.538;2022-10-30T01:02:52;101270.06;;;15.44;100.00
56420;BME280;42323;52.170;7.538;2022-10-30T01:05:19;101273.94;;;15.42;100.00
56420;BME280;42323;52.170;7.538;2022-10-30T01:07:48;101275.25;;;15.38;100.00
56420;BME280;42323;52.170;7.538;2022-10-30T01:10:14;101277.44;;;15.34;100.00
56420;BME280;42323;52.170;7.538;2022-10-30T01:12:41;101277.78;;;15.31;100.00
56420;BME280;42323;52.170;7.538;2022-10-30T01:15:09;101272.13;;;15.26;100.00
56420;BME280;42323;52.170;7.538;2022-10-30T01:22:51;101276.97;;;15.14;100.00
56420;BME280;42323;52.170;7.538;2022-10-30T01:27:54;101276.81;;;15.08;100.00
56420;BME280;42323;52.170;7.538;2022-10-30T01:35:31;101282.88;;;15.01;100.00
56420;BME280;42323;52.170;7.538;2022-10-30T01:38:05;101276.19;;;14.97;100.00
56420;BME280;42323;52.170;7.538;2022-10-30T01:40:35;101280.34;;;14.92;100.00
56420;BME280;42323;52.170;7.538;2022-10-30T01:43:01;101294.91;;;14.89;100.00
56420;BME280;42323;52.170;7.538;2022-10-30T01:47:58;101292.06;;;14.91;100.00
56420;BME280;42323;52.170;7.538;2022-10-30T01:50:32;101291.88;;;14.92;100.00
56420;BME280;42323;52.170;7.538;2022-10-30T01:55:32;101283.56;;;14.95;100.00
56420;BME280;42323;52.170;7.538;2022-10-30T02:00:36;101278.69;;;14.99;100.00
56420;BME280;42323;52.170;7.538;2022-10-30T02:03:05;101284.88;;;14.99;100.00
56420;BME280;42323;52.170;7.538;2022-10-30T02:05:35;101275.69;;;14.94;100.00
56420;BME280;42323;52.170;7.538;2022-10-30T02:08:03;101276.16;;;14.89;100.00
56420;BME280;42323;52.170;7.538;2022-10-30T02:10:30;101278.34;;;14.86;100.00
56420;BME280;42323;52.170;7.538;2022-10-30T02:12:58;101275.84;;;14.84;100.00
56420;BME280;42323;52.170;7.538;2022-10-30T02:15:25;101282.72;;;14.79;100.00
56420;BME280;42323;52.170;7.538;2022-10-30T02:17:52;101271.50;;;14.75;100.00
56420;BME280;42323;52.170;7.538;2022-10-30T02:20:19;101277.19;;;14.72;100.00
56420;BME280;42323;52.170;7.538;2022-10-30T02:22:46;101277.50;;;14.69;100.00
56420;BME280;42323;52.170;7.538;2022-10-30T02:25:13;101276.16;;;14.65;100.00
56420;BME280;42323;52.170;7.538;2022-10-30T02:27:40;101278.50;;;14.60;100.00
56420;BME280;42323;52.170;7.538;2022-10-30T02:30:07;101282.53;;;14.56;100.00
56420;BME280;42323;52.170;7.538;2022-10-30T02:32:34;101280.53;;;14.50;100.00
56420;BME280;42323;52.170;7.538;2022-10-30T02:35:00;101272.97;;;14.45;100.00
56420;BME280;42323;52.170;7.538;2022-10-30T02:37:27;101275.94;;;14.42;100.00
56420;BME280;42323;52.170;7.538;2022-10-30T02:39:54;101278.28;;;14.37;100.00
56420;BME280;42323;52.170;7.538;2022-10-30T02:42:20;101273.44;;;14.32;100.00
56420;BME280;42323;52.170;7.538;2022-10-30T02:44:48;101274.09;;;14.26;100.00
56420;BME280;42323;52.170;7.538;2022-10-30T02:47:15;101278.41;;;14.19;100.00
56420;BME280;42323;52.170;7.538;2022-10-30T02:49:41;101272.53;;;14.16;100.00
56420;BME280;42323;52.170;7.538;2022-10-30T02:52:08;101276.88;;;14.08;100.00
56420;BME280;42323;52.170;7.538;2022-10-30T02:54:34;101273.00;;;14.03;100.00
56420;BME280;42323;52.170;7.538;2022-10-30T02:57:01;101271.97;;;13.96;100.00
56420;BME280;42323;52.170;7.538;2022-10-30T02:59:28;101280.34;;;13.93;100.00
56420;BME280;42323;52.170;7.538;2022-10-30T03:01:54;101276.31;;;13.89;100.00
56420;BME280;42323;52.170;7.538;2022-10-30T03:04:21;101277.63;;;13.85;100.00
56420;BME280;42323;52.170;7.538;2022-10-30T03:06:48;101278.25;;;13.78;100.00
56420;BME280;42323;52.170;7.538;2022-10-30T03:09:14;101283.91;;;13.67;100.00
56420;BME280;42323;52.170;7.538;2022-10-30T03:11:41;101292.56;;;13.61;100.00
56420;BME280;42323;52.170;7.538;2022-10-30T03:14:09;101286.16;;;13.54;100.00
56420;BME280;42323;52.170;7.538;2022-10-30T03:16:36;101288.47;;;13.49;100.00
56420;BME280;42323;52.170;7.538;2022-10-30T03:19:03;101286.81;;;13.48;100.00
56420;BME280;42323;52.170;7.538;2022-10-30T03:21:30;101295.97;;;13.45;100.00
56420;BME280;42323;52.170;7.538;2022-10-30T03:23:57;101299.81;;;13.43;100.00
56420;BME280;42323;52.170;7.538;2022-10-30T03:26:23;101301.28;;;13.37;100.00
56420;BME280;42323;52.170;7.538;2022-10-30T03:28:50;101306.06;;;13.34;100.00
56420;BME280;42323;52.170;7.538;2022-10-30T03:31:17;101294.03;;;13.30;100.00
56420;BME280;42323;52.170;7.538;2022-10-30T03:33:44;101297.19;;;13.25;100.00
56420;BME280;42323;52.170;7.538;2022-10-30T03:36:11;101297.50;;;13.22;100.00
56420;BME280;42323;52.170;7.538;2022-10-30T03:38:38;101293.84;;;13.23;100.00
56420;BME280;42323;52.170;7.538;2022-10-30T03:41:05;101300.16;;;13.22;100.00
56420;BME280;42323;52.170;7.538;2022-10-30T03:43:31;101301.16;;;13.21;100.00
56420;BME280;42323;52.170;7.538;2022-10-30T03:45:58;101300.31;;;13.21;100.00
56420;BME280;42323;52.170;7.538;2022-10-30T03:48:25;101304.00;;;13.20;100.00
56420;BME280;42323;52.170;7.538;2022-10-30T03:50:52;101296.13;;;13.18;100.00
56420;BME280;42323;52.170;7.538;2022-10-30T03:53:19;101299.50;;;13.20;100.00
56420;BME280;42323;52.170;7.538;2022-10-30T03:55:46;101289.66;;;13.21;100.00
56420;BME280;42323;52.170;7.538;2022-10-30T03:58:13;101298.50;;;13.21;100.00
56420;BME280;42323;52.170;7.538;2022-10-30T04:00:39;101298.34;;;13.23;100.00
56420;BME280;42323;52.170;7.538;2022-10-30T04:03:06;101307.03;;;13.25;100.00
56420;BME280;42323;52.170;7.538;2022-10-30T04:05:33;101305.41;;;13.32;100.00
56420;BME280;42323;52.170;7.538;2022-10-30T04:08:02;101310.72;;;13.32;100.00
56420;BME280;42323;52.170;7.538;2022-10-30T04:10:29;101305.06;;;13.35;100.00
56420;BME280;42323;52.170;7.538;2022-10-30T04:13:00;101304.13;;;13.36;100.00
56420;BME280;42323;52.170;7.538;2022-10-30T04:15:27;101305.78;;;13.37;100.00
56420;BME280;42323;52.170;7.538;2022-10-30T04:17:53;101302.13;;;13.38;100.00
56420;BME280;42323;52.170;7.538;2022-10-30T04:20:21;101299.44;;;13.38;100.00
56420;BME280;42323;52.170;7.538;2022-10-30T04:22:48;101293.78;;;13.41;100.00
56420;BME280;42323;52.170;7.538;2022-10-30T04:25:15;101297.97;;;13.43;100.00
56420;BME280;42323;52.170;7.538;2022-10-30T04:27:42;101290.47;;;13.47;100.00
56420;BME280;42323;52.170;7.538;2022-10-30T04:30:09;101297.50;;;13.48;100.00
56420;BME280;42323;52.170;7.538;2022-10-30T04:32:44;101305.66;;;13.46;100.00
56420;BME280;42323;52.170;7.538;2022-10-30T04:35:11;101301.16;;;13.47;100.00
56420;BME280;42323;52.170;7.538;2022-10-30T04:37:37;101301.16;;;13.47;100.00
56420;BME280;42323;52.170;7.538;2022-10-30T04:40:04;101296.81;;;13.46;100.00
56420;BME280;42323;52.170;7.538;2022-10-30T04:42:31;101299.97;;;13.41;100.00
56420;BME280;42323;52.170;7.538;2022-10-30T04:44:58;101291.72;;;13.35;100.00
56420;BME280;42323;52.170;7.538;2022-10-30T04:47:24;101293.03;;;13.31;100.00
56420;BME280;42323;52.170;7.538;2022-10-30T04:49:51;101297.69;;;13.29;100.00
56420;BME280;42323;52.170;7.538;2022-10-30T04:52:18;101299.69;;;13.27;100.00
56420;BME280;42323;52.170;7.538;2022-10-30T04:54:44;101292.31;;;13.21;100.00
56420;BME280;42323;52.170;7.538;2022-10-30T04:57:11;101290.94;;;13.16;100.00
56420;BME280;42323;52.170;7.538;2022-10-30T04:59:37;101292.53;;;13.09;100.00
56420;BME280;42323;52.170;7.538;2022-10-30T05:02:04;101286.66;;;13.06;100.00
56420;BME280;42323;52.170;7.538;2022-10-30T05:04:30;101284.63;;;13.00;100.00
56420;BME280;42323;52.170;7.538;2022-10-30T05:06:57;101293.25;;;12.94;100.00
56420;BME280;42323;52.170;7.538;2022-10-30T05:09:23;101287.84;;;12.85;100.00
56420;BME280;42323;52.170;7.538;2022-10-30T05:11:50;101289.97;;;12.82;100.00
56420;BME280;42323;52.170;7.538;2022-10-30T05:14:22;101285.09;;;12.77;100.00
56420;BME280;42323;52.170;7.538;2022-10-30T05:16:49;101279.25;;;12.74;100.00
56420;BME280;42323;52.170;7.538;2022-10-30T05:19:15;101282.91;;;12.73;100.00
56420;BME280;42323;52.170;7.538;2022-10-30T05:21:42;101277.03;;;12.69;100.00
56420;BME280;42323;52.170;7.538;2022-10-30T05:24:08;101279.31;;;12.64;100.00
56420;BME280;42323;52.170;7.538;2022-10-30T05:26:35;101287.31;;;12.64;100.00
56420;BME280;42323;52.170;7.538;2022-10-30T05:29:02;101280.78;;;12.58;100.00
56420;BME280;42323;52.170;7.538;2022-10-30T05:31:28;101275.91;;;12.54;100.00
56420;BME280;42323;52.170;7.538;2022-10-30T05:33:55;101273.38;;;12.52;100.00
56420;BME280;42323;52.170;7.538;2022-10-30T05:36:21;101275.00;;;12.45;100.00
56420;BME280;42323;52.170;7.538;2022-10-30T05:38:48;101287.63;;;12.43;100.00
56420;BME280;42323;52.170;7.538;2022-10-30T05:41:15;101289.22;;;12.36;100.00
56420;BME280;42323;52.170;7.538;2022-10-30T05:43:41;101290.66;;;12.31;100.00
56420;BME280;42323;52.170;7.538;2022-10-30T05:46:08;101289.16;;;12.28;100.00
56420;BME280;42323;52.170;7.538;2022-10-30T05:48:34;101284.13;;;12.25;100.00
56420;BME280;42323;52.170;7.538;2022-10-30T05:51:01;101284.53;;;12.20;100.00
56420;BME280;42323;52.170;7.538;2022-10-30T05:53:29;101289.34;;;12.17;100.00
56420;BME280;42323;52.170;7.538;2022-10-30T05:55:56;101300.31;;;12.14;100.00
56420;BME280;42323;52.170;7.538;2022-10-30T05:58:23;101292.78;;;12.09;100.00
56420;BME280;42323;52.170;7.538;2022-10-30T06:00:50;101305.25;;;12.09;100.00
56420;BME280;42323;52.170;7.538;2022-10-30T06:03:16;101303.88;;;12.05;100.00
56420;BME280;42323;52.170;7.538;2022-10-30T06:05:43;101299.53;;;12.04;100.00
56420;BME280;42323;52.170;7.538;2022-10-30T06:08:10;101301.53;;;12.02;100.00
56420;BME280;42323;52.170;7.538;2022-10-30T06:10:37;101292.84;;;12.00;100.00
56420;BME280;42323;52.170;7.538;2022-10-30T06:13:05;101297.59;;;11.96;100.00
56420;BME280;42323;52.170;7.538;2022-10-30T06:15:32;101300.41;;;11.94;100.00
56420;BME280;42323;52.170;7.538;2022-10-30T06:17:58;101297.91;;;11.93;100.00
56420;BME280;42323;52.170;7.538;2022-10-30T06:20:27;101301.84;;;11.89;100.00
56420;BME280;42323;52.170;7.538;2022-10-30T06:23:01;101304.13;;;11.84;100.00
56420;BME280;42323;52.170;7.538;2022-10-30T06:25:28;101317.00;;;11.88;100.00
56420;BME280;42323;52.170;7.538;2022-10-30T06:27:55;101319.97;;;11.85;100.00
56420;BME280;42323;52.170;7.538;2022-10-30T06:30:23;101320.94;;;11.84;100.00
56420;BME280;42323;52.170;7.538;2022-10-30T06:32:49;101316.63;;;11.83;100.00
56420;BME280;42323;52.170;7.538;2022-10-30T06:35:16;101313.41;;;11.80;100.00
56420;BME280;42323;52.170;7.538;2022-10-30T06:37:46;101317.28;;;11.76;100.00
56420;BME280;42323;52.170;7.538;2022-10-30T06:40:12;101323.59;;;11.75;100.00
56420;BME280;42323;52.170;7.538;2022-10-30T06:42:45;101326.00;;;11.78;100.00
56420;BME280;42323;52.170;7.538;2022-10-30T06:45:13;101327.09;;;11.75;100.00
56420;BME280;42323;52.170;7.538;2022-10-30T06:47:40;101333.16;;;11.77;100.00
56420;BME280;42323;52.170;7.538;2022-10-30T06:50:07;101335.94;;;11.76;100.00
56420;BME280;42323;52.170;7.538;2022-10-30T06:52:36;101342.94;;;11.77;100.00
56420;BME280;42323;52.170;7.538;2022-10-30T06:55:04;101343.56;;;11.80;100.00
56420;BME280;42323;52.170;7.538;2022-10-30T06:57:31;101340.06;;;11.80;100.00
56420;BME280;42323;52.170;7.538;2022-10-30T06:59:58;101337.78;;;11.85;100.00
56420;BME280;42323;52.170;7.538;2022-10-30T07:02:24;101334.66;;;11.89;100.00
56420;BME280;42323;52.170;7.538;2022-10-30T07:04:51;101335.66;;;11.88;100.00
56420;BME280;42323;52.170;7.538;2022-10-30T07:07:17;101332.69;;;11.91;100.00
56420;BME280;42323;52.170;7.538;2022-10-30T07:09:44;101334.06;;;11.95;100.00
56420;BME280;42323;52.170;7.538;2022-10-30T07:12:13;101340.66;;;12.01;100.00
56420;BME280;42323;52.170;7.538;2022-10-30T07:14:40;101332.38;;;12.04;100.00
56420;BME280;42323;52.170;7.538;2022-10-30T07:17:07;101337.25;;;12.09;100.00
56420;BME280;42323;52.170;7.538;2022-10-30T07:19:33;101339.63;;;12.12;100.00
56420;BME280;42323;52.170;7.538;2022-10-30T07:22:00;101341.00;;;12.16;100.00
56420;BME280;42323;52.170;7.538;2022-10-30T07:24:27;101344.88;;;12.21;100.00
56420;BME280;42323;52.170;7.538;2022-10-30T07:26:54;101330.13;;;12.27;100.00
56420;BME280;42323;52.170;7.538;2022-10-30T07:29:20;101339.22;;;12.34;100.00
56420;BME280;42323;52.170;7.538;2022-10-30T07:31:47;101342.94;;;12.41;100.00
56420;BME280;42323;52.170;7.538;2022-10-30T07:34:27;101345.56;;;12.51;100.00
56420;BME280;42323;52.170;7.538;2022-10-30T07:36:54;101349.13;;;12.60;100.00
56420;BME280;42323;52.170;7.538;2022-10-30T07:39:20;101352.88;;;12.67;100.00
56420;BME280;42323;52.170;7.538;2022-10-30T07:41:47;101350.97;;;12.77;100.00
56420;BME280;42323;52.170;7.538;2022-10-30T07:44:15;101346.56;;;12.85;100.00
56420;BME280;42323;52.170;7.538;2022-10-30T07:46:42;101345.81;;;12.93;100.00
56420;BME280;42323;52.170;7.538;2022-10-30T07:49:08;101348.84;;;12.98;100.00
56420;BME280;42323;52.170;7.538;2022-10-30T07:51:35;101361.09;;;13.09;100.00
56420;BME280;42323;52.170;7.538;2022-10-30T07:54:01;101349.00;;;13.14;100.00
56420;BME280;42323;52.170;7.538;2022-10-30T07:56:28;101355.25;;;13.23;100.00
56420;BME280;42323;52.170;7.538;2022-10-30T07:58:55;101358.13;;;13.30;100.00
56420;BME280;42323;52.170;7.538;2022-10-30T08:01:21;101346.69;;;13.37;100.00
56420;BME280;42323;52.170;7.538;2022-10-30T08:03:48;101342.38;;;13.44;100.00
56420;BME280;42323;52.170;7.538;2022-10-30T08:06:14;101345.25;;;13.51;100.00
56420;BME280;42323;52.170;7.538;2022-10-30T08:08:41;101335.47;;;13.60;100.00
56420;BME280;42323;52.170;7.538;2022-10-30T08:11:08;101343.38;;;13.69;100.00
56420;BME280;42323;52.170;7.538;2022-10-30T08:13:35;101348.31;;;13.82;100.00
56420;BME280;42323;52.170;7.538;2022-10-30T08:16:01;101343.16;;;13.89;100.00
56420;BME280;42323;52.170;7.538;2022-10-30T08:18:28;101343.84;;;13.99;100.00
56420;BME280;42323;52.170;7.538;2022-10-30T08:20:55;101339.22;;;14.09;100.00
56420;BME280;42323;52.170;7.538;2022-10-30T08:23:21;101336.25;;;14.20;100.00
56420;BME280;42323;52.170;7.538;2022-10-30T08:25:48;101334.44;;;14.29;100.00
56420;BME280;42323;52.170;7.538;2022-10-30T08:28:15;101329.28;;;14.35;100.00
56420;BME280;42323;52.170;7.538;2022-10-30T08:30:41;101332.50;;;14.47;100.00
56420;BME280;42323;52.170;7.538;2022-10-30T08:33:11;101323.50;;;14.56;100.00
56420;BME280;42323;52.170;7.538;2022-10-30T08:35:50;101319.00;;;14.65;100.00
56420;BME280;42323;52.170;7.538;2022-10-30T08:38:17;101313.00;;;14.71;100.00
56420;BME280;42323;52.170;7.538;2022-10-30T08:40:44;101317.34;;;14.80;100.00
56420;BME280;42323;52.170;7.538;2022-10-30T08:43:11;101317.84;;;14.92;100.00
56420;BME280;42323;52.170;7.538;2022-10-30T08:45:37;101316.50;;;15.04;100.00
56420;BME280;42323;52.170;7.538;2022-10-30T08:48:05;101318.81;;;15.15;100.00
56420;BME280;42323;52.170;7.538;2022-10-30T08:50:32;101310.63;;;15.25;100.00
56420;BME280;42323;52.170;7.538;2022-10-30T08:52:59;101308.41;;;15.37;100.00
56420;BME280;42323;52.170;7.538;2022-10-30T08:55:28;101300.03;;;15.48;100.00
56420;BME280;42323;52.170;7.538;2022-10-30T08:57:55;101298.16;;;15.56;100.00
56420;BME280;42323;52.170;7.538;2022-10-30T09:00:21;101296.47;;;15.72;100.00
56420;BME280;42323;52.170;7.538;2022-10-30T09:02:48;101288.56;;;15.86;100.00
56420;BME280;42323;52.170;7.538;2022-10-30T09:05:15;101292.50;;;15.99;100.00
56420;BME280;42323;52.170;7.538;2022-10-30T09:07:41;101289.28;;;16.11;100.00
56420;BME280;42323;52.170;7.538;2022-10-30T09:10:08;101299.06;;;16.27;100.00
56420;BME280;42323;52.170;7.538;2022-10-30T09:12:35;101290.81;;;16.37;100.00
56420;BME280;42323;52.170;7.538;2022-10-30T09:15:01;101292.00;;;16.57;100.00
56420;BME280;42323;52.170;7.538;2022-10-30T09:17:28;101277.31;;;16.76;100.00
56420;BME280;42323;52.170;7.538;2022-10-30T09:19:54;101283.53;;;16.91;100.00
56420;BME280;42323;52.170;7.538;2022-10-30T09:22:22;101278.94;;;17.00;100.00
56420;BME280;42323;52.170;7.538;2022-10-30T09:24:48;101278.13;;;17.14;100.00
56420;BME280;42323;52.170;7.538;2022-10-30T09:27:15;101285.84;;;17.32;100.00
56420;BME280;42323;52.170;7.538;2022-10-30T09:29:41;101285.13;;;17.53;100.00
56420;BME280;42323;52.170;7.538;2022-10-30T09:32:08;101279.47;;;17.92;100.00
56420;BME280;42323;52.170;7.538;2022-10-30T09:34:35;101278.53;;;18.35;100.00
56420;BME280;42323;52.170;7.538;2022-10-30T09:37:03;101276.53;;;19.08;100.00
56420;BME280;42323;52.170;7.538;2022-10-30T09:39:30;101271.81;;;19.45;100.00
56420;BME280;42323;52.170;7.538;2022-10-30T09:42:13;101264.16;;;19.83;100.00
56420;BME280;42323;52.170;7.538;2022-10-30T09:57:43;101261.22;;;22.54;100.00
56420;BME280;42323;52.170;7.538;2022-10-30T10:05:20;101260.91;;;23.18;100.00
56420;BME280;42323;52.170;7.538;2022-10-30T10:07:48;101256.03;;;23.27;100.00
56420;BME280;42323;52.170;7.538;2022-10-30T10:10:19;101254.81;;;23.66;100.00
56420;BME280;42323;52.170;7.538;2022-10-30T10:12:50;101252.91;;;24.15;98.14
56420;BME280;42323;52.170;7.538;2022-10-30T10:15:31;101266.88;;;24.19;97.81
56420;BME280;42323;52.170;7.538;2022-10-30T10:18:00;101254.88;;;24.26;97.73
56420;BME280;42323;52.170;7.538;2022-10-30T10:20:31;101254.09;;;24.37;96.41
56420;BME280;42323;52.170;7.538;2022-10-30T10:23:00;101251.91;;;24.58;94.06
56420;BME280;42323;52.170;7.538;2022-10-30T10:25:30;101244.16;;;24.96;92.92
56420;BME280;42323;52.170;7.538;2022-10-30T10:28:00;101244.09;;;25.15;90.14
56420;BME280;42323;52.170;7.538;2022-10-30T10:41:05;101238.22;;;24.88;91.69
56420;BME280;42323;52.170;7.538;2022-10-30T10:51:00;101254.06;;;24.79;90.22
56420;BME280;42323;52.170;7.538;2022-10-30T10:53:29;101254.34;;;25.48;86.54
56420;BME280;42323;52.170;7.538;2022-10-30T10:56:00;101261.16;;;25.85;84.10
56420;BME280;42323;52.170;7.538;2022-10-30T10:58:49;101253.31;;;26.46;80.97
56420;BME280;42323;52.170;7.538;2022-10-30T11:01:17;101250.69;;;26.22;79.35
56420;BME280;42323;52.170;7.538;2022-10-30T11:03:53;101238.09;;;26.33;80.69
56420;BME280;42323;52.170;7.538;2022-10-30T11:10:40;101249.00;;;24.83;nan
56420;BME280;42323;52.170;7.538;2022-10-30T11:13:12;101237.50;;;21.60;nan
56420;BME280;42323;52.170;7.538;2022-10-30T11:18:15;101242.41;;;20.65;nan
56420;BME280;42323;52.170;7.538;2022-10-30T11:20:58;101242.41;;;20.65;nan
56420;BME280;42323;52.170;7.538;2022-10-30T11:23:38;101249.06;;;20.89;nan
56420;BME280;42323;52.170;7.538;2022-10-30T11:28:54;101245.38;;;21.75;nan
56420;BME280;42323;52.170;7.538;2022-10-30T11:38:29;101261.75;;;23.45;49.00
56420;BME280;42323;52.170;7.538;2022-10-30T11:43:22;101268.03;;;26.71;40.38
56420;BME280;42323;52.170;7.538;2022-10-30T11:45:53;101257.53;;;26.90;40.15
56420;BME280;42323;52.170;7.538;2022-10-30T11:48:44;101249.09;;;26.10;42.32
56420;BME280;42323;52.170;7.538;2022-10-30T11:52:54;101248.78;;;22.24;51.55
56420;BME280;42323;52.170;7.538;2022-10-30T11:55:29;101252.84;;;23.78;50.21
56420;BME280;42323;52.170;7.538;2022-10-30T15:08:05;101194.44;;;23.53;53.31
56420;BME280;42323;52.170;7.538;2022-10-30T15:10:28;101195.03;;;23.00;53.98
56420;BME280;42323;52.170;7.538;2022-10-30T15:13:03;101186.03;;;22.56;55.60
56420;BME280;42323;52.170;7.538;2022-10-30T15:15:31;101195.50;;;22.18;56.40
56420;BME280;42323;52.170;7.538;2022-10-30T15:18:02;101138.03;;;21.58;57.53
56420;BME280;42323;52.170;7.538;2022-10-30T15:20:33;101183.38;;;21.58;58.06
56420;BME280;42323;52.170;7.538;2022-10-30T15:23:05;101185.84;;;21.36;59.00
56420;BME280;42323;52.170;7.538;2022-10-30T15:25:37;101180.72;;;21.11;59.98
56420;BME280;42323;52.170;7.538;2022-10-30T15:28:32;101159.19;;;20.77;60.31
56420;BME280;42323;52.170;7.538;2022-10-30T15:31:02;101174.69;;;20.69;61.11
56420;BME280;42323;52.170;7.538;2022-10-30T15:33:30;101175.00;;;20.49;61.83
56420;BME280;42323;52.170;7.538;2022-10-30T15:35:58;101175.41;;;20.34;62.34
56420;BME280;42323;52.170;7.538;2022-10-30T15:38:25;101174.50;;;20.10;63.07
56420;BME280;42323;52.170;7.538;2022-10-30T15:40:58;101174.44;;;19.98;63.42
56420;BME280;42323;52.170;7.538;2022-10-30T15:43:31;101179.44;;;19.76;63.51
56420;BME280;42323;52.170;7.538;2022-10-30T15:46:17;101139.59;;;19.33;64.46
56420;BME280;42323;52.170;7.538;2022-10-30T15:48:56;101185.91;;;19.44;64.88
56420;BME280;42323;52.170;7.538;2022-10-30T15:51:46;101074.78;;;18.54;65.93
56420;BME280;42323;52.170;7.538;2022-10-30T15:54:16;101063.13;;;18.30;66.53
56420;BME280;42323;52.170;7.538;2022-10-30T15:56:58;101195.78;;;18.93;67.06
56420;BME280;42323;52.170;7.538;2022-10-30T15:59:56;101162.75;;;18.58;68.00
56420;BME280;42323;52.170;7.538;2022-10-30T16:02:54;101078.50;;;17.90;68.63
56420;BME280;42323;52.170;7.538;2022-10-30T16:05:26;101118.25;;;17.96;69.46
56420;BME280;42323;52.170;7.538;2022-10-30T16:08:41;101209.28;;;18.28;69.86
56420;BME280;42323;52.170;7.538;2022-10-30T16:11:18;101107.84;;;17.50;70.89
56420;BME280;42323;52.170;7.538;2022-10-30T16:21:58;101127.13;;;16.99;72.43
56420;BME280;42323;52.170;7.538;2022-10-30T16:24:38;101063.00;;;16.44;72.50
56420;BME280;42323;52.170;7.538;2022-10-30T16:27:16;101075.22;;;16.38;73.18
56420;BME280;42323;52.170;7.538;2022-10-30T16:32:28;101043.44;;;15.92;73.32
56420;BME280;42323;52.170;7.538;2022-10-30T16:35:43;101116.88;;;16.16;74.06
56420;BME280;42323;52.170;7.538;2022-10-30T16:38:21;101170.81;;;16.35;74.94
56420;BME280;42323;52.170;7.538;2022-10-30T16:40:49;101168.56;;;16.25;74.66
56420;BME280;42323;52.170;7.538;2022-10-30T16:43:26;101166.72;;;16.13;75.22
56420;BME280;42323;52.170;7.538;2022-10-30T16:48:56;101005.34;;;15.05;75.36
56420;BME280;42323;52.170;7.538;2022-10-30T16:51:27;101098.56;;;15.53;75.84
56420;BME280;42323;52.170;7.538;2022-10-30T16:59:36;101189.16;;;15.82;77.01
56420;BME280;42323;52.170;7.538;2022-10-30T17:02:17;101145.66;;;15.43;76.81
56420;BME280;42323;52.170;7.538;2022-10-30T17:04:48;101172.69;;;15.45;77.40
56420;BME280;42323;52.170;7.538;2022-10-30T17:07:24;101182.41;;;15.38;77.94
56420;BME280;42323;52.170;7.538;2022-10-30T17:09:53;101269.69;;;15.86;78.10
56420;BME280;42323;52.170;7.538;2022-10-30T17:14:52;101265.34;;;15.72;78.33
56420;BME280;42323;52.170;7.538;2022-10-30T17:17:26;101284.25;;;15.75;78.76
56420;BME280;42323;52.170;7.538;2022-10-30T17:19:56;101231.56;;;15.39;78.52
56420;BME280;42323;52.170;7.538;2022-10-30T17:22:24;101257.44;;;15.50;78.91
56420;BME280;42323;52.170;7.538;2022-10-30T17:30:28;101283.44;;;15.47;79.26
56420;BME280;42323;52.170;7.538;2022-10-30T17:32:55;101277.25;;;15.33;79.45
56420;BME280;42323;52.170;7.538;2022-10-30T17:35:23;101282.00;;;15.23;79.91
56420;BME280;42323;52.170;7.538;2022-10-30T17:37:49;101270.09;;;15.05;80.05
56420;BME280;42323;52.170;7.538;2022-10-30T17:40:18;101297.00;;;15.16;80.58
56420;BME280;42323;52.170;7.538;2022-10-30T17:42:46;101306.66;;;15.09;80.53
56420;BME280;42323;52.170;7.538;2022-10-30T17:45:15;101314.34;;;15.03;80.68
56420;BME280;42323;52.170;7.538;2022-10-30T17:47:44;101252.63;;;14.62;80.87
56420;BME280;42323;52.170;7.538;2022-10-30T17:50:12;101312.75;;;14.88;81.15
56420;BME280;42323;52.170;7.538;2022-10-30T17:53:00;101324.69;;;14.84;81.35